sensor_id;sensor_type;location;lat;lon;timestamp;P1;P4;P2;P0;N10;N4;N25;N1;N05;TS
72225;SPS30;60130;52.250;5.048;2023-08-30T00:00:00;3.59;;3.58;;;;;;;
72225;SPS30;60130;52.250;5.048;2023-08-30T00:05:00;3.41;;3.37;;;;;;;
72225;SPS30;60130;52.250;5.048;2023-08-30T00:10:00;4.00;;3.91;;;;;;;
72225;SPS30;60130;52.250;5.048;2023-08-30T00:15:00;3.69;;3.61;;;;;;;
72225;SPS30;60130;52.250;5.048;2023-08-30T00:20:00;3.33;;3.20;;;;;;;
72225;SPS30;60130;52.250;5.048;2023-08-30T00:25:00;3.58;;3.53;;;;;;;
72225;SPS30;60130;52.250;5.048;2023-08-30T00:30:00;3.48;;3.45;;;;;;;
72225;SPS30;60130;52.250;5.048;2023-08-30T00:35:00;3.28;;3.22;;;;;;;
72225;SPS30;60130;52.250;5.048;2023-08-30T00:40:00;3.94;;3.76;;;;;;;
72225;SPS30;60130;52.250;5.048;2023-08-30T00:45:00;3.81;;3.72;;;;;;;
72225;SPS30;60130;52.250;5.048;2023-08-30T00:50:00;4.40;;4.33;;;;;;;
72225;SPS30;60130;52.250;5.048;2023-08-30T00:55:00;4.32;;4.27;;;;;;;
72225;SPS30;60130;52.250;5.048;2023-08-30T01:00:00;4.78;;4.68;;;;;;;
72225;SPS30;60130;52.250;5.048;2023-08-30T01:05:00;3.79;;3.74;;;;;;;
72225;SPS30;60130;52.250;5.048;2023-08-30T01:10:00;3.27;;3.20;;;;;;;
72225;SPS30;60130;52.250;5.048;2023-08-30T01:15:01;4.19;;4.06;;;;;;;
72225;SPS30;60130;52.250;5.048;2023-08-30T01:20:00;5.27;;5.02;;;;;;;
72225;SPS30;60130;52.250;5.048;2023-08-30T01:25:03;3.79;;3.66;;;;;;;
72225;SPS30;60130;52.250;5.048;2023-08-30T01:30:00;4.76;;4.64;;;;;;;
72225;SPS30;60130;52.250;5.048;2023-08-30T01:35:00;4.17;;4.11;;;;;;;
72225;SPS30;60130;52.250;5.048;2023-08-30T01:40:00;4.70;;4.57;;;;;;;
72225;SPS30;60130;52.250;5.048;2023-08-30T01:45:00;4.09;;4.01;;;;;;;
72225;SPS30;60130;52.250;5.048;2023-08-30T01:50:00;4.65;;4.44;;;;;;;
72225;SPS30;60130;52.250;5.048;2023-08-30T01:55:00;4.71;;4.60;;;;;;;
72225;SPS30;60130;52.250;5.048;2023-08-30T02:00:00;4.22;;4.18;;;;;;;
72225;SPS30;60130;52.250;5.048;2023-08-30T02:05:00;4.53;;4.41;;;;;;;
72225;SPS30;60130;52.250;5.048;2023-08-30T02:10:01;5.24;;4.96;;;;;;;
72225;SPS30;60130;52.250;5.048;2023-08-30T02:15:00;4.66;;4.48;;;;;;;
72225;SPS30;60130;52.250;5.048;2023-08-30T02:20:00;5.28;;5.18;;;;;;;
72225;SPS30;60130;52.250;5.048;2023-08-30T02:25:00;4.65;;4.48;;;;;;;
72225;SPS30;60130;52.250;5.048;2023-08-30T02:30:00;4.71;;4.44;;;;;;;
72225;SPS30;60130;52.250;5.048;2023-08-30T02:35:02;5.64;;5.55;;;;;;;
72225;SPS30;60130;52.250;5.048;2023-08-30T02:40:00;4.96;;4.82;;;;;;;
72225;SPS30;60130;52.250;5.048;2023-08-30T02:45:00;5.44;;5.25;;;;;;;
72225;SPS30;60130;52.250;5.048;2023-08-30T02:50:00;5.35;;5.08;;;;;;;
72225;SPS30;60130;52.250;5.048;2023-08-30T02:55:00;5.85;;5.57;;;;;;;
72225;SPS30;60130;52.250;5.048;2023-08-30T03:00:00;5.77;;5.61;;;;;;;
72225;SPS30;60130;52.250;5.048;2023-08-30T03:05:00;6.39;;6.26;;;;;;;
72225;SPS30;60130;52.250;5.048;2023-08-30T03:10:00;6.72;;6.46;;;;;;;
72225;SPS30;60130;52.250;5.048;2023-08-30T03:15:00;5.80;;5.58;;;;;;;
72225;SPS30;60130;52.250;5.048;2023-08-30T03:20:00;5.86;;5.69;;;;;;;
72225;SPS30;60130;52.250;5.048;2023-08-30T03:25:00;6.24;;5.92;;;;;;;
72225;SPS30;60130;52.250;5.048;2023-08-30T03:30:00;6.83;;6.46;;;;;;;
72225;SPS30;60130;52.250;5.048;2023-08-30T03:35:00;6.56;;6.21;;;;;;;
72225;SPS30;60130;52.250;5.048;2023-08-30T03:40:00;6.08;;5.91;;;;;;;
72225;SPS30;60130;52.250;5.048;2023-08-30T03:45:00;6.26;;5.95;;;;;;;
72225;SPS30;60130;52.250;5.048;2023-08-30T03:50:00;6.62;;6.40;;;;;;;
72225;SPS30;60130;52.250;5.048;2023-08-30T03:55:00;6.10;;5.84;;;;;;;
72225;SPS30;60130;52.250;5.048;2023-08-30T04:00:00;6.36;;5.97;;;;;;;
72225;SPS30;60130;52.250;5.048;2023-08-30T04:05:00;5.77;;5.56;;;;;;;
72225;SPS30;60130;52.250;5.048;2023-08-30T04:10:00;6.17;;5.85;;;;;;;
72225;SPS30;60130;52.250;5.048;2023-08-30T04:15:00;5.91;;5.68;;;;;;;
72225;SPS30;60130;52.250;5.048;2023-08-30T04:20:00;6.36;;6.06;;;;;;;
72225;SPS30;60130;52.250;5.048;2023-08-30T04:25:00;6.45;;6.20;;;;;;;
72225;SPS30;60130;52.250;5.048;2023-08-30T04:30:01;5.78;;5.66;;;;;;;
72225;SPS30;60130;52.250;5.048;2023-08-30T04:35:00;5.27;;5.11;;;;;;;
72225;SPS30;60130;52.250;5.048;2023-08-30T04:40:00;5.88;;5.57;;;;;;;
72225;SPS30;60130;52.250;5.048;2023-08-30T04:45:00;5.77;;5.53;;;;;;;
72225;SPS30;60130;52.250;5.048;2023-08-30T04:50:00;5.67;;5.64;;;;;;;
72225;SPS30;60130;52.250;5.048;2023-08-30T04:55:00;5.69;;5.56;;;;;;;
72225;SPS30;60130;52.250;5.048;2023-08-30T05:00:00;5.04;;4.90;;;;;;;
72225;SPS30;60130;52.250;5.048;2023-08-30T05:05:00;5.08;;4.88;;;;;;;
72225;SPS30;60130;52.250;5.048;2023-08-30T05:10:00;5.58;;5.39;;;;;;;
72225;SPS30;60130;52.250;5.048;2023-08-30T05:15:00;5.36;;5.18;;;;;;;
72225;SPS30;60130;52.250;5.048;2023-08-30T05:20:00;5.30;;5.19;;;;;;;
72225;SPS30;60130;52.250;5.048;2023-08-30T05:25:00;5.51;;5.26;;;;;;;
72225;SPS30;60130;52.250;5.048;2023-08-30T05:30:00;5.78;;5.58;;;;;;;
72225;SPS30;60130;52.250;5.048;2023-08-30T05:35:00;5.05;;4.90;;;;;;;
72225;SPS30;60130;52.250;5.048;2023-08-30T05:40:00;5.35;;5.18;;;;;;;
72225;SPS30;60130;52.250;5.048;2023-08-30T05:45:00;4.67;;4.57;;;;;;;
72225;SPS30;60130;52.250;5.048;2023-08-30T05:50:00;4.79;;4.74;;;;;;;
72225;SPS30;60130;52.250;5.048;2023-08-30T05:55:00;4.95;;4.77;;;;;;;
72225;SPS30;60130;52.250;5.048;2023-08-30T06:00:00;6.15;;5.87;;;;;;;
72225;SPS30;60130;52.250;5.048;2023-08-30T06:05:00;5.83;;5.59;;;;;;;
72225;SPS30;60130;52.250;5.048;2023-08-30T06:10:00;6.36;;6.09;;;;;;;
72225;SPS30;60130;52.250;5.048;2023-08-30T06:15:00;5.93;;5.69;;;;;;;
72225;SPS30;60130;52.250;5.048;2023-08-30T06:20:00;6.56;;6.29;;;;;;;
72225;SPS30;60130;52.250;5.048;2023-08-30T06:25:00;6.71;;6.34;;;;;;;
72225;SPS30;60130;52.250;5.048;2023-08-30T06:30:00;6.05;;5.87;;;;;;;
72225;SPS30;60130;52.250;5.048;2023-08-30T06:35:00;5.24;;5.21;;;;;;;
72225;SPS30;60130;52.250;5.048;2023-08-30T06:40:00;6.04;;5.81;;;;;;;
72225;SPS30;60130;52.250;5.048;2023-08-30T06:45:00;6.58;;6.36;;;;;;;
72225;SPS30;60130;52.250;5.048;2023-08-30T06:50:00;6.64;;6.39;;;;;;;
72225;SPS30;60130;52.250;5.048;2023-08-30T06:55:00;6.17;;6.05;;;;;;;
72225;SPS30;60130;52.250;5.048;2023-08-30T07:00:00;5.86;;5.70;;;;;;;
72225;SPS30;60130;52.250;5.048;2023-08-30T07:05:00;6.14;;5.98;;;;;;;
72225;SPS30;60130;52.250;5.048;2023-08-30T07:10:00;5.89;;5.77;;;;;;;
72225;SPS30;60130;52.250;5.048;2023-08-30T07:15:00;5.41;;5.25;;;;;;;
72225;SPS30;60130;52.250;5.048;2023-08-30T07:20:00;5.54;;5.46;;;;;;;
72225;SPS30;60130;52.250;5.048;2023-08-30T07:25:00;5.05;;4.86;;;;;;;
72225;SPS30;60130;52.250;5.048;2023-08-30T07:30:00;5.09;;5.00;;;;;;;
72225;SPS30;60130;52.250;5.048;2023-08-30T07:35:00;4.42;;4.33;;;;;;;
72225;SPS30;60130;52.250;5.048;2023-08-30T07:40:00;3.48;;3.37;;;;;;;
72225;SPS30;60130;52.250;5.048;2023-08-30T07:45:00;3.96;;3.79;;;;;;;
72225;SPS30;60130;52.250;5.048;2023-08-30T07:50:00;3.22;;3.19;;;;;;;
72225;SPS30;60130;52.250;5.048;2023-08-30T07:55:00;3.27;;3.22;;;;;;;
72225;SPS30;60130;52.250;5.048;2023-08-30T08:00:00;3.82;;3.71;;;;;;;
72225;SPS30;60130;52.250;5.048;2023-08-30T08:05:00;4.16;;4.10;;;;;;;
72225;SPS30;60130;52.250;5.048;2023-08-30T08:10:00;3.73;;3.68;;;;;;;
72225;SPS30;60130;52.250;5.048;2023-08-30T08:15:00;3.80;;3.79;;;;;;;
72225;SPS30;60130;52.250;5.048;2023-08-30T08:20:00;3.34;;3.32;;;;;;;
72225;SPS30;60130;52.250;5.048;2023-08-30T08:25:00;3.06;;3.04;;;;;;;
72225;SPS30;60130;52.250;5.048;2023-08-30T08:30:00;2.84;;2.83;;;;;;;
72225;SPS30;60130;52.250;5.048;2023-08-30T08:35:00;2.53;;2.52;;;;;;;
72225;SPS30;60130;52.250;5.048;2023-08-30T08:40:00;3.32;;3.32;;;;;;;
72225;SPS30;60130;52.250;5.048;2023-08-30T08:45:00;3.78;;3.78;;;;;;;
72225;SPS30;60130;52.250;5.048;2023-08-30T08:50:00;3.27;;3.25;;;;;;;
72225;SPS30;60130;52.250;5.048;2023-08-30T08:55:00;3.21;;3.21;;;;;;;
72225;SPS30;60130;52.250;5.048;2023-08-30T09:00:00;3.88;;3.88;;;;;;;
72225;SPS30;60130;52.250;5.048;2023-08-30T09:05:00;3.30;;3.30;;;;;;;
72225;SPS30;60130;52.250;5.048;2023-08-30T09:10:00;3.43;;3.43;;;;;;;
72225;SPS30;60130;52.250;5.048;2023-08-30T09:15:00;3.78;;3.78;;;;;;;
72225;SPS30;60130;52.250;5.048;2023-08-30T09:20:05;3.82;;3.82;;;;;;;
72225;SPS30;60130;52.250;5.048;2023-08-30T09:25:00;3.64;;3.62;;;;;;;
72225;SPS30;60130;52.250;5.048;2023-08-30T09:30:00;3.25;;3.19;;;;;;;
72225;SPS30;60130;52.250;5.048;2023-08-30T09:35:00;4.11;;4.07;;;;;;;
72225;SPS30;60130;52.250;5.048;2023-08-30T09:40:00;3.95;;3.91;;;;;;;
72225;SPS30;60130;52.250;5.048;2023-08-30T09:45:00;4.81;;4.81;;;;;;;
72225;SPS30;60130;52.250;5.048;2023-08-30T09:50:00;4.47;;4.35;;;;;;;
72225;SPS30;60130;52.250;5.048;2023-08-30T09:55:00;3.90;;3.88;;;;;;;
72225;SPS30;60130;52.250;5.048;2023-08-30T10:00:00;3.67;;3.67;;;;;;;
72225;SPS30;60130;52.250;5.048;2023-08-30T10:05:00;3.43;;3.41;;;;;;;
72225;SPS30;60130;52.250;5.048;2023-08-30T10:10:00;2.41;;2.41;;;;;;;
72225;SPS30;60130;52.250;5.048;2023-08-30T10:15:00;2.66;;2.65;;;;;;;
72225;SPS30;60130;52.250;5.048;2023-08-30T10:20:01;2.11;;2.10;;;;;;;
72225;SPS30;60130;52.250;5.048;2023-08-30T10:25:01;1.43;;1.43;;;;;;;
72225;SPS30;60130;52.250;5.048;2023-08-30T10:30:00;2.37;;2.36;;;;;;;
72225;SPS30;60130;52.250;5.048;2023-08-30T10:35:01;1.97;;1.96;;;;;;;
72225;SPS30;60130;52.250;5.048;2023-08-30T10:40:00;2.02;;2.02;;;;;;;
72225;SPS30;60130;52.250;5.048;2023-08-30T10:45:00;2.33;;2.33;;;;;;;
72225;SPS30;60130;52.250;5.048;2023-08-30T10:50:00;1.81;;1.80;;;;;;;
72225;SPS30;60130;52.250;5.048;2023-08-30T10:55:07;2.13;;2.12;;;;;;;
72225;SPS30;60130;52.250;5.048;2023-08-30T11:00:04;2.25;;2.22;;;;;;;
72225;SPS30;60130;52.250;5.048;2023-08-30T11:05:00;2.53;;2.45;;;;;;;
72225;SPS30;60130;52.250;5.048;2023-08-30T11:10:00;1.93;;1.89;;;;;;;
72225;SPS30;60130;52.250;5.048;2023-08-30T11:15:00;1.50;;1.48;;;;;;;
72225;SPS30;60130;52.250;5.048;2023-08-30T11:20:05;1.56;;1.53;;;;;;;
72225;SPS30;60130;52.250;5.048;2023-08-30T11:25:00;1.70;;1.64;;;;;;;
72225;SPS30;60130;52.250;5.048;2023-08-30T11:30:00;1.77;;1.68;;;;;;;
72225;SPS30;60130;52.250;5.048;2023-08-30T11:35:00;2.08;;2.01;;;;;;;
72225;SPS30;60130;52.250;5.048;2023-08-30T11:40:00;1.49;;1.45;;;;;;;
72225;SPS30;60130;52.250;5.048;2023-08-30T11:45:00;1.60;;1.55;;;;;;;
72225;SPS30;60130;52.250;5.048;2023-08-30T11:50:00;1.28;;1.23;;;;;;;
72225;SPS30;60130;52.250;5.048;2023-08-30T11:55:00;1.69;;1.61;;;;;;;
72225;SPS30;60130;52.250;5.048;2023-08-30T12:00:06;1.44;;1.37;;;;;;;
72225;SPS30;60130;52.250;5.048;2023-08-30T12:05:00;0.98;;0.93;;;;;;;
72225;SPS30;60130;52.250;5.048;2023-08-30T12:10:03;1.23;;1.15;;;;;;;
72225;SPS30;60130;52.250;5.048;2023-08-30T12:15:00;1.90;;1.82;;;;;;;
72225;SPS30;60130;52.250;5.048;2023-08-30T12:20:00;1.09;;1.05;;;;;;;
72225;SPS30;60130;52.250;5.048;2023-08-30T12:25:00;1.60;;1.52;;;;;;;
72225;SPS30;60130;52.250;5.048;2023-08-30T12:30:00;1.02;;0.98;;;;;;;
72225;SPS30;60130;52.250;5.048;2023-08-30T12:35:00;1.34;;1.26;;;;;;;
72225;SPS30;60130;52.250;5.048;2023-08-30T12:40:00;1.63;;1.52;;;;;;;
72225;SPS30;60130;52.250;5.048;2023-08-30T12:45:00;1.52;;1.47;;;;;;;
72225;SPS30;60130;52.250;5.048;2023-08-30T12:50:00;1.41;;1.36;;;;;;;
72225;SPS30;60130;52.250;5.048;2023-08-30T12:55:00;1.17;;1.13;;;;;;;
72225;SPS30;60130;52.250;5.048;2023-08-30T13:00:00;1.30;;1.25;;;;;;;
72225;SPS30;60130;52.250;5.048;2023-08-30T13:05:00;1.06;;1.02;;;;;;;
72225;SPS30;60130;52.250;5.048;2023-08-30T13:10:00;1.07;;1.04;;;;;;;
72225;SPS30;60130;52.250;5.048;2023-08-30T13:15:00;1.04;;1.04;;;;;;;
72225;SPS30;60130;52.250;5.048;2023-08-30T13:20:00;1.84;;1.84;;;;;;;
72225;SPS30;60130;52.250;5.048;2023-08-30T13:25:00;1.17;;1.17;;;;;;;
72225;SPS30;60130;52.250;5.048;2023-08-30T13:30:00;1.21;;1.18;;;;;;;
72225;SPS30;60130;52.250;5.048;2023-08-30T13:35:00;1.53;;1.53;;;;;;;
72225;SPS30;60130;52.250;5.048;2023-08-30T13:40:00;1.35;;1.33;;;;;;;
72225;SPS30;60130;52.250;5.048;2023-08-30T13:45:00;1.72;;1.69;;;;;;;
72225;SPS30;60130;52.250;5.048;2023-08-30T13:50:00;1.41;;1.40;;;;;;;
72225;SPS30;60130;52.250;5.048;2023-08-30T13:55:00;1.05;;1.04;;;;;;;
72225;SPS30;60130;52.250;5.048;2023-08-30T14:00:00;0.68;;0.67;;;;;;;
72225;SPS30;60130;52.250;5.048;2023-08-30T14:05:00;0.76;;0.76;;;;;;;
72225;SPS30;60130;52.250;5.048;2023-08-30T14:10:00;0.66;;0.66;;;;;;;
72225;SPS30;60130;52.250;5.048;2023-08-30T14:15:00;0.98;;0.97;;;;;;;
72225;SPS30;60130;52.250;5.048;2023-08-30T14:20:00;1.06;;1.06;;;;;;;
72225;SPS30;60130;52.250;5.048;2023-08-30T14:25:01;1.23;;1.20;;;;;;;
72225;SPS30;60130;52.250;5.048;2023-08-30T14:30:00;0.91;;0.89;;;;;;;
72225;SPS30;60130;52.250;5.048;2023-08-30T14:35:00;1.01;;0.99;;;;;;;
72225;SPS30;60130;52.250;5.048;2023-08-30T14:40:00;1.47;;1.43;;;;;;;
72225;SPS30;60130;52.250;5.048;2023-08-30T14:45:00;1.40;;1.36;;;;;;;
72225;SPS30;60130;52.250;5.048;2023-08-30T14:50:00;1.52;;1.47;;;;;;;
72225;SPS30;60130;52.250;5.048;2023-08-30T14:55:00;1.27;;1.23;;;;;;;
72225;SPS30;60130;52.250;5.048;2023-08-30T15:00:00;1.03;;1.00;;;;;;;
72225;SPS30;60130;52.250;5.048;2023-08-30T15:05:00;0.81;;0.78;;;;;;;
72225;SPS30;60130;52.250;5.048;2023-08-30T15:10:00;0.92;;0.89;;;;;;;
72225;SPS30;60130;52.250;5.048;2023-08-30T15:15:00;1.04;;0.99;;;;;;;
72225;SPS30;60130;52.250;5.048;2023-08-30T15:20:00;0.86;;0.82;;;;;;;
72225;SPS30;60130;52.250;5.048;2023-08-30T15:25:00;0.87;;0.83;;;;;;;
72225;SPS30;60130;52.250;5.048;2023-08-30T15:30:00;1.01;;0.98;;;;;;;
72225;SPS30;60130;52.250;5.048;2023-08-30T15:35:00;1.15;;1.11;;;;;;;
72225;SPS30;60130;52.250;5.048;2023-08-30T15:40:01;1.15;;1.13;;;;;;;
72225;SPS30;60130;52.250;5.048;2023-08-30T15:45:00;1.59;;1.55;;;;;;;
72225;SPS30;60130;52.250;5.048;2023-08-30T15:50:00;0.92;;0.89;;;;;;;
72225;SPS30;60130;52.250;5.048;2023-08-30T15:55:00;0.93;;0.87;;;;;;;
72225;SPS30;60130;52.250;5.048;2023-08-30T16:00:00;0.77;;0.72;;;;;;;
72225;SPS30;60130;52.250;5.048;2023-08-30T16:05:00;0.86;;0.82;;;;;;;
72225;SPS30;60130;52.250;5.048;2023-08-30T16:10:00;1.20;;1.15;;;;;;;
72225;SPS30;60130;52.250;5.048;2023-08-30T16:15:00;0.77;;0.71;;;;;;;
72225;SPS30;60130;52.250;5.048;2023-08-30T16:20:00;0.77;;0.71;;;;;;;
72225;SPS30;60130;52.250;5.048;2023-08-30T16:25:00;1.05;;0.98;;;;;;;
72225;SPS30;60130;52.250;5.048;2023-08-30T16:30:00;0.75;;0.70;;;;;;;
72225;SPS30;60130;52.250;5.048;2023-08-30T16:35:00;0.96;;0.90;;;;;;;
72225;SPS30;60130;52.250;5.048;2023-08-30T16:40:00;0.99;;0.93;;;;;;;
72225;SPS30;60130;52.250;5.048;2023-08-30T16:45:00;0.57;;0.55;;;;;;;
72225;SPS30;60130;52.250;5.048;2023-08-30T16:50:00;1.24;;1.17;;;;;;;
72225;SPS30;60130;52.250;5.048;2023-08-30T16:55:00;1.36;;1.30;;;;;;;
72225;SPS30;60130;52.250;5.048;2023-08-30T17:00:00;0.85;;0.81;;;;;;;
72225;SPS30;60130;52.250;5.048;2023-08-30T17:05:00;0.70;;0.66;;;;;;;
72225;SPS30;60130;52.250;5.048;2023-08-30T17:10:00;0.52;;0.49;;;;;;;
72225;SPS30;60130;52.250;5.048;2023-08-30T17:15:00;0.43;;0.41;;;;;;;
72225;SPS30;60130;52.250;5.048;2023-08-30T17:20:00;1.24;;1.17;;;;;;;
72225;SPS30;60130;52.250;5.048;2023-08-30T17:25:00;0.97;;0.91;;;;;;;
72225;SPS30;60130;52.250;5.048;2023-08-30T17:30:00;1.13;;1.06;;;;;;;
72225;SPS30;60130;52.250;5.048;2023-08-30T17:35:00;0.74;;0.70;;;;;;;
72225;SPS30;60130;52.250;5.048;2023-08-30T17:40:00;0.65;;0.62;;;;;;;
72225;SPS30;60130;52.250;5.048;2023-08-30T17:45:00;1.09;;1.01;;;;;;;
72225;SPS30;60130;52.250;5.048;2023-08-30T17:50:00;0.88;;0.80;;;;;;;
72225;SPS30;60130;52.250;5.048;2023-08-30T17:55:00;0.94;;0.85;;;;;;;
72225;SPS30;60130;52.250;5.048;2023-08-30T18:00:00;1.44;;1.32;;;;;;;
72225;SPS30;60130;52.250;5.048;2023-08-30T18:05:00;0.54;;0.49;;;;;;;
72225;SPS30;60130;52.250;5.048;2023-08-30T18:10:00;0.54;;0.50;;;;;;;
72225;SPS30;60130;52.250;5.048;2023-08-30T18:15:00;0.80;;0.72;;;;;;;
72225;SPS30;60130;52.250;5.048;2023-08-30T18:20:00;1.31;;1.18;;;;;;;
72225;SPS30;60130;52.250;5.048;2023-08-30T18:25:00;1.07;;0.98;;;;;;;
72225;SPS30;60130;52.250;5.048;2023-08-30T18:30:00;1.38;;1.26;;;;;;;
72225;SPS30;60130;52.250;5.048;2023-08-30T18:35:00;0.78;;0.72;;;;;;;
72225;SPS30;60130;52.250;5.048;2023-08-30T18:40:00;1.44;;1.34;;;;;;;
72225;SPS30;60130;52.250;5.048;2023-08-30T18:45:00;0.96;;0.90;;;;;;;
72225;SPS30;60130;52.250;5.048;2023-08-30T18:50:00;1.43;;1.36;;;;;;;
72225;SPS30;60130;52.250;5.048;2023-08-30T18:55:00;1.08;;1.02;;;;;;;
72225;SPS30;60130;52.250;5.048;2023-08-30T19:00:00;0.78;;0.74;;;;;;;
72225;SPS30;60130;52.250;5.048;2023-08-30T19:05:00;0.65;;0.62;;;;;;;
72225;SPS30;60130;52.250;5.048;2023-08-30T19:10:00;0.92;;0.87;;;;;;;
72225;SPS30;60130;52.250;5.048;2023-08-30T19:15:00;0.63;;0.61;;;;;;;
72225;SPS30;60130;52.250;5.048;2023-08-30T19:20:00;0.81;;0.76;;;;;;;
72225;SPS30;60130;52.250;5.048;2023-08-30T19:25:00;0.88;;0.84;;;;;;;
72225;SPS30;60130;52.250;5.048;2023-08-30T19:30:00;0.92;;0.87;;;;;;;
72225;SPS30;60130;52.250;5.048;2023-08-30T19:35:00;0.65;;0.61;;;;;;;
72225;SPS30;60130;52.250;5.048;2023-08-30T19:40:00;1.60;;1.50;;;;;;;
72225;SPS30;60130;52.250;5.048;2023-08-30T19:45:00;1.07;;1.00;;;;;;;
72225;SPS30;60130;52.250;5.048;2023-08-30T19:50:00;1.31;;1.24;;;;;;;
72225;SPS30;60130;52.250;5.048;2023-08-30T19:55:00;1.20;;1.15;;;;;;;
72225;SPS30;60130;52.250;5.048;2023-08-30T20:00:00;0.94;;0.91;;;;;;;
72225;SPS30;60130;52.250;5.048;2023-08-30T20:05:00;1.34;;1.33;;;;;;;
72225;SPS30;60130;52.250;5.048;2023-08-30T20:10:00;1.23;;1.21;;;;;;;
72225;SPS30;60130;52.250;5.048;2023-08-30T20:15:00;1.39;;1.37;;;;;;;
72225;SPS30;60130;52.250;5.048;2023-08-30T20:20:00;1.23;;1.21;;;;;;;
72225;SPS30;60130;52.250;5.048;2023-08-30T20:25:00;0.84;;0.82;;;;;;;
72225;SPS30;60130;52.250;5.048;2023-08-30T20:30:00;0.87;;0.85;;;;;;;
72225;SPS30;60130;52.250;5.048;2023-08-30T20:35:00;0.78;;0.77;;;;;;;
72225;SPS30;60130;52.250;5.048;2023-08-30T20:40:00;1.05;;1.03;;;;;;;
72225;SPS30;60130;52.250;5.048;2023-08-30T20:45:00;0.98;;0.96;;;;;;;
72225;SPS30;60130;52.250;5.048;2023-08-30T20:50:00;1.65;;1.59;;;;;;;
72225;SPS30;60130;52.250;5.048;2023-08-30T20:55:00;0.86;;0.86;;;;;;;
72225;SPS30;60130;52.250;5.048;2023-08-30T21:00:00;1.37;;1.36;;;;;;;
72225;SPS30;60130;52.250;5.048;2023-08-30T21:05:00;1.46;;1.46;;;;;;;
72225;SPS30;60130;52.250;5.048;2023-08-30T21:10:00;1.21;;1.20;;;;;;;
72225;SPS30;60130;52.250;5.048;2023-08-30T21:15:00;1.04;;1.04;;;;;;;
72225;SPS30;60130;52.250;5.048;2023-08-30T21:20:00;1.23;;1.23;;;;;;;
72225;SPS30;60130;52.250;5.048;2023-08-30T21:25:00;1.09;;1.09;;;;;;;
72225;SPS30;60130;52.250;5.048;2023-08-30T21:30:00;0.90;;0.90;;;;;;;
72225;SPS30;60130;52.250;5.048;2023-08-30T21:35:00;1.08;;1.08;;;;;;;
72225;SPS30;60130;52.250;5.048;2023-08-30T21:40:00;1.24;;1.24;;;;;;;
72225;SPS30;60130;52.250;5.048;2023-08-30T21:45:00;1.07;;1.07;;;;;;;
72225;SPS30;60130;52.250;5.048;2023-08-30T21:50:00;1.42;;1.42;;;;;;;
72225;SPS30;60130;52.250;5.048;2023-08-30T21:55:00;1.28;;1.28;;;;;;;
72225;SPS30;60130;52.250;5.048;2023-08-30T22:00:00;1.50;;1.50;;;;;;;
72225;SPS30;60130;52.250;5.048;2023-08-30T22:05:00;1.70;;1.70;;;;;;;
72225;SPS30;60130;52.250;5.048;2023-08-30T22:10:00;1.79;;1.79;;;;;;;
72225;SPS30;60130;52.250;5.048;2023-08-30T22:15:00;1.65;;1.65;;;;;;;
72225;SPS30;60130;52.250;5.048;2023-08-30T22:20:00;1.68;;1.68;;;;;;;
72225;SPS30;60130;52.250;5.048;2023-08-30T22:25:00;2.12;;2.12;;;;;;;
72225;SPS30;60130;52.250;5.048;2023-08-30T22:30:00;2.11;;2.11;;;;;;;
72225;SPS30;60130;52.250;5.048;2023-08-30T22:35:01;1.97;;1.97;;;;;;;
72225;SPS30;60130;52.250;5.048;2023-08-30T22:40:00;2.01;;2.01;;;;;;;
72225;SPS30;60130;52.250;5.048;2023-08-30T22:45:00;2.17;;2.16;;;;;;;
72225;SPS30;60130;52.250;5.048;2023-08-30T22:50:00;2.37;;2.37;;;;;;;
72225;SPS30;60130;52.250;5.048;2023-08-30T22:55:00;1.96;;1.96;;;;;;;
72225;SPS30;60130;52.250;5.048;2023-08-30T23:00:00;2.45;;2.45;;;;;;;
72225;SPS30;60130;52.250;5.048;2023-08-30T23:05:00;2.01;;2.01;;;;;;;
72225;SPS30;60130;52.250;5.048;2023-08-30T23:10:00;1.97;;1.96;;;;;;;
72225;SPS30;60130;52.250;5.048;2023-08-30T23:15:00;2.46;;2.46;;;;;;;
72225;SPS30;60130;52.250;5.048;2023-08-30T23:20:00;2.00;;2.00;;;;;;;
72225;SPS30;60130;52.250;5.048;2023-08-30T23:25:00;2.53;;2.53;;;;;;;
72225;SPS30;60130;52.250;5.048;2023-08-30T23:30:00;1.93;;1.93;;;;;;;
72225;SPS30;60130;52.250;5.048;2023-08-30T23:35:00;2.35;;2.35;;;;;;;
72225;SPS30;60130;52.250;5.048;2023-08-30T23:40:00;2.71;;2.71;;;;;;;
72225;SPS30;60130;52.250;5.048;2023-08-30T23:45:00;2.68;;2.68;;;;;;;
72225;SPS30;60130;52.250;5.048;2023-08-30T23:50:00;2.90;;2.90;;;;;;;
72225;SPS30;60130;52.250;5.048;2023-08-30T23:55:00;3.07;;3.07;;;;;;;
